sensor_id;sensor_type;location;lat;lon;timestamp;P1;durP1;ratioP1;P2;durP2;ratioP2
962;SDS011;469;48.770;9.176;2023-02-23T00:02:15;18.33;;;9.50;;
962;SDS011;469;48.770;9.176;2023-02-23T00:04:45;20.60;;;9.32;;
962;SDS011;469;48.770;9.176;2023-02-23T00:07:12;20.60;;;8.95;;
962;SDS011;469;48.770;9.176;2023-02-23T00:09:45;20.23;;;9.30;;
962;SDS011;469;48.770;9.176;2023-02-23T00:12:14;23.95;;;9.30;;
962;SDS011;469;48.770;9.176;2023-02-23T00:14:43;22.42;;;8.85;;
962;SDS011;469;48.770;9.176;2023-02-23T00:17:10;21.88;;;8.95;;
962;SDS011;469;48.770;9.176;2023-02-23T00:19:41;16.10;;;8.07;;
962;SDS011;469;48.770;9.176;2023-02-23T00:22:13;20.92;;;8.88;;
962;SDS011;469;48.770;9.176;2023-02-23T00:24:42;27.02;;;8.73;;
962;SDS011;469;48.770;9.176;2023-02-23T00:27:11;22.55;;;8.40;;
962;SDS011;469;48.770;9.176;2023-02-23T00:29:44;26.80;;;9.25;;
962;SDS011;469;48.770;9.176;2023-02-23T00:32:13;20.63;;;9.15;;
962;SDS011;469;48.770;9.176;2023-02-23T00:34:43;18.40;;;9.52;;
962;SDS011;469;48.770;9.176;2023-02-23T00:37:13;22.83;;;9.20;;
962;SDS011;469;48.770;9.176;2023-02-23T00:39:41;19.60;;;9.80;;
962;SDS011;469;48.770;9.176;2023-02-23T00:42:08;18.60;;;9.40;;
962;SDS011;469;48.770;9.176;2023-02-23T00:44:37;24.15;;;9.88;;
962;SDS011;469;48.770;9.176;2023-02-23T00:47:10;23.48;;;9.13;;
962;SDS011;469;48.770;9.176;2023-02-23T00:49:41;21.98;;;9.52;;
962;SDS011;469;48.770;9.176;2023-02-23T00:52:14;24.92;;;9.98;;
962;SDS011;469;48.770;9.176;2023-02-23T00:54:44;22.30;;;9.88;;
962;SDS011;469;48.770;9.176;2023-02-23T00:57:11;21.38;;;10.30;;
962;SDS011;469;48.770;9.176;2023-02-23T00:59:42;24.02;;;10.73;;
962;SDS011;469;48.770;9.176;2023-02-23T01:02:11;22.05;;;10.98;;
962;SDS011;469;48.770;9.176;2023-02-23T01:04:38;25.67;;;10.20;;
962;SDS011;469;48.770;9.176;2023-02-23T01:07:06;23.52;;;10.40;;
962;SDS011;469;48.770;9.176;2023-02-23T01:09:41;26.27;;;11.18;;
962;SDS011;469;48.770;9.176;2023-02-23T01:12:09;20.58;;;10.25;;
962;SDS011;469;48.770;9.176;2023-02-23T01:14:40;28.63;;;11.10;;
962;SDS011;469;48.770;9.176;2023-02-23T01:17:08;22.13;;;10.32;;
962;SDS011;469;48.770;9.176;2023-02-23T01:19:36;23.30;;;10.77;;
962;SDS011;469;48.770;9.176;2023-02-23T01:22:07;24.35;;;11.55;;
962;SDS011;469;48.770;9.176;2023-02-23T01:24:37;24.30;;;11.05;;
962;SDS011;469;48.770;9.176;2023-02-23T01:27:04;30.13;;;11.00;;
962;SDS011;469;48.770;9.176;2023-02-23T01:29:34;33.72;;;13.00;;
962;SDS011;469;48.770;9.176;2023-02-23T01:32:02;32.05;;;11.55;;
962;SDS011;469;48.770;9.176;2023-02-23T01:37:15;31.42;;;12.95;;
962;SDS011;469;48.770;9.176;2023-02-23T01:39:49;24.17;;;11.57;;
962;SDS011;469;48.770;9.176;2023-02-23T01:42:21;29.92;;;13.05;;
962;SDS011;469;48.770;9.176;2023-02-23T01:45:20;30.48;;;13.18;;
962;SDS011;469;48.770;9.176;2023-02-23T01:47:52;26.58;;;12.55;;
962;SDS011;469;48.770;9.176;2023-02-23T01:50:20;29.13;;;12.07;;
962;SDS011;469;48.770;9.176;2023-02-23T01:52:52;23.60;;;12.48;;
962;SDS011;469;48.770;9.176;2023-02-23T01:55:21;23.50;;;12.35;;
962;SDS011;469;48.770;9.176;2023-02-23T01:57:55;27.00;;;12.95;;
962;SDS011;469;48.770;9.176;2023-02-23T02:00:28;33.45;;;14.88;;
962;SDS011;469;48.770;9.176;2023-02-23T02:03:05;28.85;;;13.13;;
962;SDS011;469;48.770;9.176;2023-02-23T02:05:48;29.35;;;14.23;;
962;SDS011;469;48.770;9.176;2023-02-23T03:22:45;31.25;;;14.15;;
962;SDS011;469;48.770;9.176;2023-02-23T03:31:19;28.33;;;13.82;;
962;SDS011;469;48.770;9.176;2023-02-23T03:31:48;28.52;;;13.95;;
962;SDS011;469;48.770;9.176;2023-02-23T03:35:12;39.92;;;18.10;;
962;SDS011;469;48.770;9.176;2023-02-23T04:34:37;41.22;;;17.00;;
962;SDS011;469;48.770;9.176;2023-02-23T04:37:35;40.40;;;18.15;;
962;SDS011;469;48.770;9.176;2023-02-23T04:40:16;34.42;;;17.05;;
962;SDS011;469;48.770;9.176;2023-02-23T04:43:05;38.05;;;17.40;;
962;SDS011;469;48.770;9.176;2023-02-23T04:46:00;40.47;;;17.83;;
962;SDS011;469;48.770;9.176;2023-02-23T04:49:21;38.92;;;18.42;;
962;SDS011;469;48.770;9.176;2023-02-23T05:24:18;41.63;;;18.88;;
962;SDS011;469;48.770;9.176;2023-02-23T05:30:45;40.28;;;18.20;;
962;SDS011;469;48.770;9.176;2023-02-23T05:51:57;20.08;;;10.35;;
962;SDS011;469;48.770;9.176;2023-02-23T05:54:51;23.05;;;9.65;;
962;SDS011;469;48.770;9.176;2023-02-23T06:00:57;17.45;;;9.05;;
962;SDS011;469;48.770;9.176;2023-02-23T06:03:28;26.77;;;11.13;;
962;SDS011;469;48.770;9.176;2023-02-23T06:06:05;35.70;;;15.98;;
962;SDS011;469;48.770;9.176;2023-02-23T06:08:39;33.78;;;16.83;;
962;SDS011;469;48.770;9.176;2023-02-23T06:11:20;39.20;;;17.50;;
962;SDS011;469;48.770;9.176;2023-02-23T06:14:01;44.92;;;17.70;;
962;SDS011;469;48.770;9.176;2023-02-23T06:16:38;38.50;;;17.15;;
962;SDS011;469;48.770;9.176;2023-02-23T06:19:27;38.45;;;18.20;;
962;SDS011;469;48.770;9.176;2023-02-23T06:22:05;38.85;;;16.15;;
962;SDS011;469;48.770;9.176;2023-02-23T06:25:14;35.92;;;16.63;;
962;SDS011;469;48.770;9.176;2023-02-23T06:27:55;37.33;;;17.58;;
962;SDS011;469;48.770;9.176;2023-02-23T06:30:30;23.80;;;12.40;;
962;SDS011;469;48.770;9.176;2023-02-23T06:33:18;32.17;;;13.00;;
962;SDS011;469;48.770;9.176;2023-02-23T06:35:48;22.40;;;10.70;;
962;SDS011;469;48.770;9.176;2023-02-23T06:38:33;21.50;;;10.43;;
962;SDS011;469;48.770;9.176;2023-02-23T06:44:14;24.40;;;10.00;;
962;SDS011;469;48.770;9.176;2023-02-23T06:46:53;22.48;;;10.18;;
962;SDS011;469;48.770;9.176;2023-02-23T06:49:33;23.10;;;9.82;;
962;SDS011;469;48.770;9.176;2023-02-23T06:52:20;20.42;;;9.50;;
962;SDS011;469;48.770;9.176;2023-02-23T06:55:07;27.92;;;10.45;;
962;SDS011;469;48.770;9.176;2023-02-23T06:57:47;24.80;;;8.70;;
962;SDS011;469;48.770;9.176;2023-02-23T07:00:19;21.73;;;9.43;;
962;SDS011;469;48.770;9.176;2023-02-23T07:03:05;20.38;;;9.02;;
962;SDS011;469;48.770;9.176;2023-02-23T07:05:57;20.25;;;9.50;;
962;SDS011;469;48.770;9.176;2023-02-23T07:11:24;22.65;;;9.40;;
962;SDS011;469;48.770;9.176;2023-02-23T07:13:57;21.63;;;9.15;;
962;SDS011;469;48.770;9.176;2023-02-23T07:16:34;19.90;;;8.98;;
962;SDS011;469;48.770;9.176;2023-02-23T07:19:02;19.25;;;8.40;;
962;SDS011;469;48.770;9.176;2023-02-23T07:21:47;20.45;;;8.80;;
962;SDS011;469;48.770;9.176;2023-02-23T07:24:14;21.85;;;9.07;;
962;SDS011;469;48.770;9.176;2023-02-23T07:26:46;21.77;;;9.30;;
962;SDS011;469;48.770;9.176;2023-02-23T07:29:26;24.40;;;10.35;;
962;SDS011;469;48.770;9.176;2023-02-23T07:32:05;23.40;;;9.70;;
962;SDS011;469;48.770;9.176;2023-02-23T07:34:37;28.85;;;10.07;;
962;SDS011;469;48.770;9.176;2023-02-23T07:37:16;24.38;;;10.32;;
962;SDS011;469;48.770;9.176;2023-02-23T07:39:44;24.30;;;9.63;;
962;SDS011;469;48.770;9.176;2023-02-23T07:42:15;17.52;;;8.32;;
962;SDS011;469;48.770;9.176;2023-02-23T07:44:48;18.13;;;8.95;;
962;SDS011;469;48.770;9.176;2023-02-23T07:47:20;26.23;;;8.77;;
962;SDS011;469;48.770;9.176;2023-02-23T07:49:55;16.98;;;8.50;;
962;SDS011;469;48.770;9.176;2023-02-23T07:52:27;16.92;;;8.57;;
962;SDS011;469;48.770;9.176;2023-02-23T07:54:59;19.88;;;8.13;;
962;SDS011;469;48.770;9.176;2023-02-23T07:57:27;23.98;;;10.43;;
962;SDS011;469;48.770;9.176;2023-02-23T08:17:54;28.88;;;9.65;;
962;SDS011;469;48.770;9.176;2023-02-23T08:20:47;20.95;;;9.55;;
962;SDS011;469;48.770;9.176;2023-02-23T08:23:30;13.50;;;7.50;;
962;SDS011;469;48.770;9.176;2023-02-23T08:26:28;15.63;;;7.38;;
962;SDS011;469;48.770;9.176;2023-02-23T08:29:31;19.80;;;9.57;;
962;SDS011;469;48.770;9.176;2023-02-23T08:32:26;18.58;;;7.40;;
962;SDS011;469;48.770;9.176;2023-02-23T08:38:11;17.67;;;7.75;;
962;SDS011;469;48.770;9.176;2023-02-23T08:40:50;14.57;;;6.82;;
962;SDS011;469;48.770;9.176;2023-02-23T08:43:43;16.08;;;7.22;;
962;SDS011;469;48.770;9.176;2023-02-23T08:46:25;16.98;;;7.10;;
962;SDS011;469;48.770;9.176;2023-02-23T08:49:15;14.75;;;7.10;;
962;SDS011;469;48.770;9.176;2023-02-23T08:55:18;26.13;;;7.28;;
962;SDS011;469;48.770;9.176;2023-02-23T08:58:20;16.90;;;7.28;;
962;SDS011;469;48.770;9.176;2023-02-23T09:01:00;12.75;;;6.60;;
962;SDS011;469;48.770;9.176;2023-02-23T09:19:37;15.15;;;5.55;;
962;SDS011;469;48.770;9.176;2023-02-23T09:22:31;14.00;;;5.47;;
962;SDS011;469;48.770;9.176;2023-02-23T09:25:12;10.55;;;5.15;;
962;SDS011;469;48.770;9.176;2023-02-23T09:28:13;10.73;;;5.00;;
962;SDS011;469;48.770;9.176;2023-02-23T09:34:12;8.52;;;4.65;;
962;SDS011;469;48.770;9.176;2023-02-23T09:41:21;11.35;;;4.93;;
962;SDS011;469;48.770;9.176;2023-02-23T09:43:34;18.10;;;7.57;;
962;SDS011;469;48.770;9.176;2023-02-23T09:45:41;16.92;;;5.47;;
962;SDS011;469;48.770;9.176;2023-02-23T09:48:15;11.80;;;4.88;;
962;SDS011;469;48.770;9.176;2023-02-23T09:51:02;10.70;;;5.20;;
962;SDS011;469;48.770;9.176;2023-02-23T09:53:34;11.95;;;5.32;;
962;SDS011;469;48.770;9.176;2023-02-23T09:56:05;19.27;;;6.13;;
962;SDS011;469;48.770;9.176;2023-02-23T09:59:12;14.15;;;6.05;;
962;SDS011;469;48.770;9.176;2023-02-23T10:01:37;17.75;;;6.05;;
962;SDS011;469;48.770;9.176;2023-02-23T10:04:19;17.20;;;5.75;;
962;SDS011;469;48.770;9.176;2023-02-23T10:06:53;17.25;;;6.55;;
962;SDS011;469;48.770;9.176;2023-02-23T10:09:27;10.70;;;5.32;;
962;SDS011;469;48.770;9.176;2023-02-23T10:13:25;18.88;;;6.18;;
962;SDS011;469;48.770;9.176;2023-02-23T10:15:23;32.03;;;10.02;;
962;SDS011;469;48.770;9.176;2023-02-23T10:17:58;19.05;;;8.10;;
962;SDS011;469;48.770;9.176;2023-02-23T10:20:29;16.73;;;6.60;;
962;SDS011;469;48.770;9.176;2023-02-23T10:23:02;21.20;;;10.02;;
962;SDS011;469;48.770;9.176;2023-02-23T10:25:31;28.88;;;12.18;;
962;SDS011;469;48.770;9.176;2023-02-23T10:28:00;30.13;;;9.55;;
962;SDS011;469;48.770;9.176;2023-02-23T10:30:29;26.20;;;9.20;;
962;SDS011;469;48.770;9.176;2023-02-23T10:32:58;21.60;;;7.80;;
962;SDS011;469;48.770;9.176;2023-02-23T10:35:27;16.63;;;6.97;;
962;SDS011;469;48.770;9.176;2023-02-23T10:37:55;19.38;;;7.22;;
962;SDS011;469;48.770;9.176;2023-02-23T10:40:25;28.33;;;10.55;;
962;SDS011;469;48.770;9.176;2023-02-23T10:42:53;15.73;;;6.60;;
962;SDS011;469;48.770;9.176;2023-02-23T10:45:23;16.77;;;7.13;;
962;SDS011;469;48.770;9.176;2023-02-23T10:47:55;34.00;;;7.43;;
962;SDS011;469;48.770;9.176;2023-02-23T10:50:23;14.65;;;4.68;;
962;SDS011;469;48.770;9.176;2023-02-23T10:52:55;18.83;;;5.05;;
962;SDS011;469;48.770;9.176;2023-02-23T10:55:25;17.35;;;4.72;;
962;SDS011;469;48.770;9.176;2023-02-23T10:58:03;17.55;;;3.70;;
962;SDS011;469;48.770;9.176;2023-02-23T11:00:33;13.45;;;3.85;;
962;SDS011;469;48.770;9.176;2023-02-23T11:03:01;7.57;;;2.55;;
962;SDS011;469;48.770;9.176;2023-02-23T11:05:30;17.58;;;5.43;;
962;SDS011;469;48.770;9.176;2023-02-23T11:08:18;26.02;;;8.45;;
962;SDS011;469;48.770;9.176;2023-02-23T11:11:05;25.33;;;9.77;;
962;SDS011;469;48.770;9.176;2023-02-23T11:13:34;22.80;;;10.45;;
962;SDS011;469;48.770;9.176;2023-02-23T11:16:16;19.80;;;9.57;;
962;SDS011;469;48.770;9.176;2023-02-23T11:20:06;29.15;;;9.80;;
962;SDS011;469;48.770;9.176;2023-02-23T11:25:13;27.30;;;10.18;;
962;SDS011;469;48.770;9.176;2023-02-23T11:40:34;33.55;;;9.13;;
962;SDS011;469;48.770;9.176;2023-02-23T11:56:03;27.08;;;7.70;;
962;SDS011;469;48.770;9.176;2023-02-23T15:20:22;7.28;;;3.10;;
962;SDS011;469;48.770;9.176;2023-02-23T15:22:53;7.63;;;3.42;;
962;SDS011;469;48.770;9.176;2023-02-23T15:25:22;16.50;;;4.40;;
962;SDS011;469;48.770;9.176;2023-02-23T15:27:50;28.92;;;9.48;;
962;SDS011;469;48.770;9.176;2023-02-23T15:30:23;12.07;;;4.80;;
962;SDS011;469;48.770;9.176;2023-02-23T15:33:00;12.98;;;4.97;;
962;SDS011;469;48.770;9.176;2023-02-23T15:35:30;14.90;;;5.00;;
962;SDS011;469;48.770;9.176;2023-02-23T15:38:10;12.30;;;4.47;;
962;SDS011;469;48.770;9.176;2023-02-23T15:40:43;12.65;;;4.55;;
962;SDS011;469;48.770;9.176;2023-02-23T15:43:21;12.80;;;5.07;;
962;SDS011;469;48.770;9.176;2023-02-23T15:45:48;19.90;;;5.10;;
962;SDS011;469;48.770;9.176;2023-02-23T15:48:17;10.48;;;4.82;;
962;SDS011;469;48.770;9.176;2023-02-23T15:50:46;14.77;;;4.63;;
962;SDS011;469;48.770;9.176;2023-02-23T15:53:19;10.75;;;4.55;;
962;SDS011;469;48.770;9.176;2023-02-23T15:55:48;11.45;;;4.80;;
962;SDS011;469;48.770;9.176;2023-02-23T16:16:31;12.65;;;5.40;;
962;SDS011;469;48.770;9.176;2023-02-23T16:24:17;14.63;;;5.03;;
962;SDS011;469;48.770;9.176;2023-02-23T16:27:14;15.63;;;5.28;;
962;SDS011;469;48.770;9.176;2023-02-23T16:29:54;17.85;;;5.55;;
962;SDS011;469;48.770;9.176;2023-02-23T16:34:59;14.38;;;5.35;;
962;SDS011;469;48.770;9.176;2023-02-23T21:42:13;22.77;;;9.73;;
962;SDS011;469;48.770;9.176;2023-02-23T21:45:01;25.65;;;10.95;;
962;SDS011;469;48.770;9.176;2023-02-23T21:51:05;24.90;;;10.68;;
962;SDS011;469;48.770;9.176;2023-02-23T21:54:03;24.77;;;10.55;;
